EGAC/BHD METAR and TAF weather

Enter ICAO airport designator
Station Type Date Time Source
EGAC METAR 2024/04/17 17:50 UTC NOAA

EGAC 171750Z AUTO 02008KT 340V040 9999 NCD 10/02 Q1019


Station Type Date Time Source
EGAC Decoded METAR 2024/04/17 17:50 UTC NOAA

Belfast / Harbour, United Kingdom (EGAC) 54-36N 005-53W 0M
Apr 17, 2024 - 01:50 PM EDT / 2024.04.17 1750 UTC
Wind: from the NNE (020 degrees) at 9 MPH (8 KT) (direction variable):0
Visibility: greater than 7 mile(s):0
Temperature: 50 F (10 C)
Dew Point: 35 F (2 C)
Relative Humidity: 57%
Pressure (altimeter): 30.09 in. Hg (1019 hPa)
ob: EGAC 171750Z AUTO 02008KT 340V040 9999 NCD 10/02 Q1019
cycle: 18

Station Type Date Time Source
EGAC TAF 2021/12/01 18:15 UTC NOAA